Lufkin, TX (75901)

8:58 PM CST on February 21, 2017 (GMT -0600)
Inwood Terrace | | Change Station
Active Advisory: Flood Warning

Elev 280 ft 31.32 °N, 94.71 °W | Updated 10 seconds ago

Clear
Clear
59.5 °F
Feels Like 59.5 °F
N
0.0
Wind Variable Wind from SW
Gusts 0.0 mph

Today
High -- | Low -- °F
--% Chance of Precip.
Yesterday
High -- | Low -- °F
Precip. -- in
Pressure 29.90 in
Visibility 10.0 miles
Clouds Clear
Dew Point 54 °F
Humidity 82%
Rainfall 0.00 in
Snow Depth Not available.
6:54 AM 6:11 PM
Waning Crescent, 21% visible
METAR KLFK 220253Z AUTO 28003KT 10SM CLR 14/11 A2991 RMK AO2 SLP125 T01390111 51008
Pressure 29.90 in
Visibility 10.0 miles
Clouds Clear
Dew Point 54 °F
Humidity 82%
Rainfall 0.00 in
Snow Depth Not available.
6:54 AM 6:11 PM
Waning Crescent, 21% visible
METAR KLFK 220253Z AUTO 28003KT 10SM CLR 14/11 A2991 RMK AO2 SLP125 T01390111 51008

Get Your Daily Forecast Email!

Thanks for signing up!

Be on the lookout for a verification email in your inbox.

You'll start receiving the daily forecast at 8 AM.

×

10-Day Weather Forecast

Almanac

Astronomy

Feb. 21, 2017 Rise Set
Actual Time
Civil Twilight
Nautical Twilight
Astronomical Twilight
Moon
Length of Visible Light
Length of Day
Tomorrow will be .
, % of the Moon is Illuminated

Today's Extremes

State Highs State Lows

Community

WunderPhotos

Upload Photos

1,962,540 photos uploaded!

WunderBlog® & News

Nearby

Air Quality

  Air Quality AQ Index Pollutant
Not available.

Snow Depth

Station Depth Elevation

Earthquake Activity

City Distance Mag. Time & Date
Minimum magnitude displayed is 2.5.

Coastal Water Temperatures

Place Temperature

Stations

Nearby Weather Stations

Station Location Temp. Windchill Dew Point Humidity Wind Precip. Elev Updated Type
                   

Watches & Warnings

Flood Warning
Issued: 8:17 AM CST Feb. 21, 2017 – National Weather Service

The Flood Warning continues for
the Neches River near Diboll.
* From Wednesday afternoon to Friday morning... or until the warning
is cancelled.
* At 7:15 am Tuesday the stage was 8.3 feet.
* Minor flooding is forecast.
* Flood stage is 12.0 feet.
* Forecast... rise above flood stage by tomorrow afternoon and
continue to rise to near 12.2 feet by early Thursday morning. The
river will fall below flood stage by Thursday early afternoon.
* Impact... at 12.0 feet... minor lowland flooding occurs. Expect
flooded boat ramps and trails.


Lat... Lon 3138 9492 3107 9455 3103 9459 3111 9485 3136 9500


25